sensor_id;sensor_type;location;lat;lon;timestamp;temperature;humidity
2935;DHT22;2462;51.456;7.248;2022-10-31T00:01:00;16.60;99.90
2935;DHT22;2462;51.456;7.248;2022-10-31T00:03:26;16.50;99.90
2935;DHT22;2462;51.456;7.248;2022-10-31T00:05:52;16.60;99.90
2935;DHT22;2462;51.456;7.248;2022-10-31T00:08:18;16.60;99.90
2935;DHT22;2462;51.456;7.248;2022-10-31T00:10:45;16.60;99.90
2935;DHT22;2462;51.456;7.248;2022-10-31T00:13:12;16.60;99.90
2935;DHT22;2462;51.456;7.248;2022-10-31T00:15:38;16.60;99.90
2935;DHT22;2462;51.456;7.248;2022-10-31T00:18:05;16.60;99.90
2935;DHT22;2462;51.456;7.248;2022-10-31T00:20:32;16.60;99.90
2935;DHT22;2462;51.456;7.248;2022-10-31T00:22:58;16.60;99.90
2935;DHT22;2462;51.456;7.248;2022-10-31T00:25:24;16.60;99.90
2935;DHT22;2462;51.456;7.248;2022-10-31T00:27:49;16.60;99.90
2935;DHT22;2462;51.456;7.248;2022-10-31T00:30:15;16.60;99.90
2935;DHT22;2462;51.456;7.248;2022-10-31T00:32:40;16.60;99.90
2935;DHT22;2462;51.456;7.248;2022-10-31T00:35:06;16.60;99.90
2935;DHT22;2462;51.456;7.248;2022-10-31T00:37:32;16.60;99.90
2935;DHT22;2462;51.456;7.248;2022-10-31T00:39:57;16.60;99.90
2935;DHT22;2462;51.456;7.248;2022-10-31T00:42:23;16.60;99.90
2935;DHT22;2462;51.456;7.248;2022-10-31T00:44:48;16.60;99.90
2935;DHT22;2462;51.456;7.248;2022-10-31T00:47:14;16.70;99.90
2935;DHT22;2462;51.456;7.248;2022-10-31T00:49:39;16.50;99.90
2935;DHT22;2462;51.456;7.248;2022-10-31T00:52:05;16.50;99.90
2935;DHT22;2462;51.456;7.248;2022-10-31T00:54:30;16.50;99.90
2935;DHT22;2462;51.456;7.248;2022-10-31T00:56:57;16.50;99.90
2935;DHT22;2462;51.456;7.248;2022-10-31T00:59:23;16.30;99.90
2935;DHT22;2462;51.456;7.248;2022-10-31T01:01:48;16.50;99.90
2935;DHT22;2462;51.456;7.248;2022-10-31T01:04:14;16.50;99.90
2935;DHT22;2462;51.456;7.248;2022-10-31T01:06:39;16.50;99.90
2935;DHT22;2462;51.456;7.248;2022-10-31T01:09:05;16.50;99.90
2935;DHT22;2462;51.456;7.248;2022-10-31T01:11:31;16.50;99.90
2935;DHT22;2462;51.456;7.248;2022-10-31T01:13:56;16.50;99.90
2935;DHT22;2462;51.456;7.248;2022-10-31T01:16:24;16.50;99.90
2935;DHT22;2462;51.456;7.248;2022-10-31T01:18:51;16.50;99.90
2935;DHT22;2462;51.456;7.248;2022-10-31T01:21:19;16.40;99.90
2935;DHT22;2462;51.456;7.248;2022-10-31T01:23:46;16.40;99.90
2935;DHT22;2462;51.456;7.248;2022-10-31T01:26:31;16.50;99.90
2935;DHT22;2462;51.456;7.248;2022-10-31T01:29:07;16.40;99.90
2935;DHT22;2462;51.456;7.248;2022-10-31T01:31:35;16.40;99.90
2935;DHT22;2462;51.456;7.248;2022-10-31T01:34:01;16.40;99.90
2935;DHT22;2462;51.456;7.248;2022-10-31T01:36:35;16.40;99.90
2935;DHT22;2462;51.456;7.248;2022-10-31T01:39:07;16.40;99.90
2935;DHT22;2462;51.456;7.248;2022-10-31T01:41:35;16.40;99.90
2935;DHT22;2462;51.456;7.248;2022-10-31T01:44:45;16.40;99.90
2935;DHT22;2462;51.456;7.248;2022-10-31T01:46:58;16.40;99.90
2935;DHT22;2462;51.456;7.248;2022-10-31T01:49:38;16.40;99.90
2935;DHT22;2462;51.456;7.248;2022-10-31T01:52:16;17.70;99.90
2935;DHT22;2462;51.456;7.248;2022-10-31T01:54:49;16.40;99.90
2935;DHT22;2462;51.456;7.248;2022-10-31T01:57:17;16.40;99.90
2935;DHT22;2462;51.456;7.248;2022-10-31T01:59:48;16.40;99.90
2935;DHT22;2462;51.456;7.248;2022-10-31T02:02:15;16.60;99.90
2935;DHT22;2462;51.456;7.248;2022-10-31T02:04:42;16.30;99.90
2935;DHT22;2462;51.456;7.248;2022-10-31T02:07:13;16.30;99.90
2935;DHT22;2462;51.456;7.248;2022-10-31T02:09:40;16.30;99.90
2935;DHT22;2462;51.456;7.248;2022-10-31T02:12:06;16.30;99.90
2935;DHT22;2462;51.456;7.248;2022-10-31T02:14:33;16.30;99.90
2935;DHT22;2462;51.456;7.248;2022-10-31T02:17:00;16.30;99.90
2935;DHT22;2462;51.456;7.248;2022-10-31T02:22:27;16.30;99.90
2935;DHT22;2462;51.456;7.248;2022-10-31T02:30:23;16.20;99.90
2935;DHT22;2462;51.456;7.248;2022-10-31T02:33:38;16.20;99.90
2935;DHT22;2462;51.456;7.248;2022-10-31T02:52:23;16.00;99.90
2935;DHT22;2462;51.456;7.248;2022-10-31T02:54:49;16.00;99.90
2935;DHT22;2462;51.456;7.248;2022-10-31T02:57:17;16.00;99.90
2935;DHT22;2462;51.456;7.248;2022-10-31T02:59:47;16.00;99.90
2935;DHT22;2462;51.456;7.248;2022-10-31T03:13:15;15.90;99.90
2935;DHT22;2462;51.456;7.248;2022-10-31T03:15:47;15.90;99.90
2935;DHT22;2462;51.456;7.248;2022-10-31T03:18:29;15.90;99.90
2935;DHT22;2462;51.456;7.248;2022-10-31T03:21:13;15.80;99.90
2935;DHT22;2462;51.456;7.248;2022-10-31T03:23:40;15.80;99.90
2935;DHT22;2462;51.456;7.248;2022-10-31T03:26:09;15.80;99.90
2935;DHT22;2462;51.456;7.248;2022-10-31T03:28:45;15.80;99.90
2935;DHT22;2462;51.456;7.248;2022-10-31T03:31:13;15.80;99.90
2935;DHT22;2462;51.456;7.248;2022-10-31T03:33:42;15.90;99.90
2935;DHT22;2462;51.456;7.248;2022-10-31T03:36:11;15.80;99.90
2935;DHT22;2462;51.456;7.248;2022-10-31T03:38:38;15.80;99.90
2935;DHT22;2462;51.456;7.248;2022-10-31T03:41:05;15.80;99.90
2935;DHT22;2462;51.456;7.248;2022-10-31T03:43:40;15.80;99.90
2935;DHT22;2462;51.456;7.248;2022-10-31T03:46:07;15.80;99.90
2935;DHT22;2462;51.456;7.248;2022-10-31T03:48:33;15.80;99.90
2935;DHT22;2462;51.456;7.248;2022-10-31T03:53:34;15.80;99.90
2935;DHT22;2462;51.456;7.248;2022-10-31T03:56:11;15.80;99.90
2935;DHT22;2462;51.456;7.248;2022-10-31T04:01:52;15.80;99.90
2935;DHT22;2462;51.456;7.248;2022-10-31T04:04:21;15.80;99.90
2935;DHT22;2462;51.456;7.248;2022-10-31T04:06:47;15.80;99.90
2935;DHT22;2462;51.456;7.248;2022-10-31T04:09:14;15.70;99.90
2935;DHT22;2462;51.456;7.248;2022-10-31T04:11:46;15.70;99.90
2935;DHT22;2462;51.456;7.248;2022-10-31T04:14:13;15.70;99.90
2935;DHT22;2462;51.456;7.248;2022-10-31T04:16:41;15.70;99.90
2935;DHT22;2462;51.456;7.248;2022-10-31T04:19:07;15.70;99.90
2935;DHT22;2462;51.456;7.248;2022-10-31T04:21:33;15.70;99.90
2935;DHT22;2462;51.456;7.248;2022-10-31T04:23:59;15.70;99.90
2935;DHT22;2462;51.456;7.248;2022-10-31T04:26:24;15.70;99.90
2935;DHT22;2462;51.456;7.248;2022-10-31T04:28:50;15.60;99.90
2935;DHT22;2462;51.456;7.248;2022-10-31T04:31:16;16.00;99.90
2935;DHT22;2462;51.456;7.248;2022-10-31T04:33:41;15.60;99.90
2935;DHT22;2462;51.456;7.248;2022-10-31T04:36:07;15.60;99.90
2935;DHT22;2462;51.456;7.248;2022-10-31T04:38:33;15.50;99.90
2935;DHT22;2462;51.456;7.248;2022-10-31T04:40:58;15.50;99.90
2935;DHT22;2462;51.456;7.248;2022-10-31T04:43:24;15.50;99.90
2935;DHT22;2462;51.456;7.248;2022-10-31T04:45:50;15.50;99.90
2935;DHT22;2462;51.456;7.248;2022-10-31T04:48:15;15.50;99.90
2935;DHT22;2462;51.456;7.248;2022-10-31T04:50:41;15.40;99.90
2935;DHT22;2462;51.456;7.248;2022-10-31T04:53:06;15.40;99.90
2935;DHT22;2462;51.456;7.248;2022-10-31T04:55:32;15.40;99.90
2935;DHT22;2462;51.456;7.248;2022-10-31T04:57:57;15.40;99.90
2935;DHT22;2462;51.456;7.248;2022-10-31T05:00:23;15.40;99.90
2935;DHT22;2462;51.456;7.248;2022-10-31T05:02:55;15.40;99.90
2935;DHT22;2462;51.456;7.248;2022-10-31T05:05:23;15.30;99.90
2935;DHT22;2462;51.456;7.248;2022-10-31T05:07:49;15.30;99.90
2935;DHT22;2462;51.456;7.248;2022-10-31T05:10:18;15.30;99.90
2935;DHT22;2462;51.456;7.248;2022-10-31T05:12:54;15.30;99.90
2935;DHT22;2462;51.456;7.248;2022-10-31T05:15:22;15.30;99.90
2935;DHT22;2462;51.456;7.248;2022-10-31T05:17:47;15.20;99.90
2935;DHT22;2462;51.456;7.248;2022-10-31T05:20:14;15.20;99.90
2935;DHT22;2462;51.456;7.248;2022-10-31T05:22:51;15.20;99.90
2935;DHT22;2462;51.456;7.248;2022-10-31T05:25:18;15.20;99.90
2935;DHT22;2462;51.456;7.248;2022-10-31T05:27:47;15.20;99.90
2935;DHT22;2462;51.456;7.248;2022-10-31T05:30:15;15.10;99.90
2935;DHT22;2462;51.456;7.248;2022-10-31T05:32:46;15.10;99.90
2935;DHT22;2462;51.456;7.248;2022-10-31T05:35:20;15.10;99.90
2935;DHT22;2462;51.456;7.248;2022-10-31T05:37:46;15.10;99.90
2935;DHT22;2462;51.456;7.248;2022-10-31T05:40:13;15.00;99.90
2935;DHT22;2462;51.456;7.248;2022-10-31T05:42:40;15.00;99.90
2935;DHT22;2462;51.456;7.248;2022-10-31T05:45:07;15.00;99.90
2935;DHT22;2462;51.456;7.248;2022-10-31T05:47:33;15.00;99.90
2935;DHT22;2462;51.456;7.248;2022-10-31T05:49:59;15.00;99.90
2935;DHT22;2462;51.456;7.248;2022-10-31T05:52:24;15.00;99.90
2935;DHT22;2462;51.456;7.248;2022-10-31T05:54:50;15.00;99.90
2935;DHT22;2462;51.456;7.248;2022-10-31T05:57:15;14.90;99.90
2935;DHT22;2462;51.456;7.248;2022-10-31T05:59:41;14.90;99.90
2935;DHT22;2462;51.456;7.248;2022-10-31T06:02:06;15.00;99.90
2935;DHT22;2462;51.456;7.248;2022-10-31T06:04:32;14.90;99.90
2935;DHT22;2462;51.456;7.248;2022-10-31T06:06:57;14.90;99.90
2935;DHT22;2462;51.456;7.248;2022-10-31T06:09:23;14.90;99.90
2935;DHT22;2462;51.456;7.248;2022-10-31T06:11:49;15.70;99.90
2935;DHT22;2462;51.456;7.248;2022-10-31T06:14:14;14.80;99.90
2935;DHT22;2462;51.456;7.248;2022-10-31T06:16:40;14.90;99.90
2935;DHT22;2462;51.456;7.248;2022-10-31T06:19:05;14.80;99.90
2935;DHT22;2462;51.456;7.248;2022-10-31T06:21:31;14.80;99.90
2935;DHT22;2462;51.456;7.248;2022-10-31T06:23:56;14.80;99.90
2935;DHT22;2462;51.456;7.248;2022-10-31T06:26:22;14.80;99.90
2935;DHT22;2462;51.456;7.248;2022-10-31T06:28:47;14.80;99.90
2935;DHT22;2462;51.456;7.248;2022-10-31T06:31:13;14.80;99.90
2935;DHT22;2462;51.456;7.248;2022-10-31T06:33:41;14.80;99.90
2935;DHT22;2462;51.456;7.248;2022-10-31T06:36:07;15.00;99.90
2935;DHT22;2462;51.456;7.248;2022-10-31T06:38:32;14.80;99.90
2935;DHT22;2462;51.456;7.248;2022-10-31T06:41:02;14.80;99.90
2935;DHT22;2462;51.456;7.248;2022-10-31T06:43:28;14.70;99.90
2935;DHT22;2462;51.456;7.248;2022-10-31T06:45:54;14.70;99.90
2935;DHT22;2462;51.456;7.248;2022-10-31T06:48:19;14.70;99.90
2935;DHT22;2462;51.456;7.248;2022-10-31T06:50:45;14.70;99.90
2935;DHT22;2462;51.456;7.248;2022-10-31T06:53:10;14.70;99.90
2935;DHT22;2462;51.456;7.248;2022-10-31T06:55:36;14.70;99.90
2935;DHT22;2462;51.456;7.248;2022-10-31T06:58:01;14.70;99.90
2935;DHT22;2462;51.456;7.248;2022-10-31T07:00:29;14.70;99.90
2935;DHT22;2462;51.456;7.248;2022-10-31T07:03:00;14.70;99.90
2935;DHT22;2462;51.456;7.248;2022-10-31T07:05:27;14.70;99.90
2935;DHT22;2462;51.456;7.248;2022-10-31T07:08:01;14.70;99.90
2935;DHT22;2462;51.456;7.248;2022-10-31T07:10:30;14.70;99.90
2935;DHT22;2462;51.456;7.248;2022-10-31T07:13:02;14.70;99.90
2935;DHT22;2462;51.456;7.248;2022-10-31T07:15:29;14.70;99.90
2935;DHT22;2462;51.456;7.248;2022-10-31T07:17:59;14.70;99.90
2935;DHT22;2462;51.456;7.248;2022-10-31T07:20:26;14.60;99.90
2935;DHT22;2462;51.456;7.248;2022-10-31T07:22:52;14.60;99.90
2935;DHT22;2462;51.456;7.248;2022-10-31T07:25:17;14.60;99.90
2935;DHT22;2462;51.456;7.248;2022-10-31T07:27:43;14.60;99.90
2935;DHT22;2462;51.456;7.248;2022-10-31T07:30:11;14.60;99.90
2935;DHT22;2462;51.456;7.248;2022-10-31T07:32:41;14.60;99.90
2935;DHT22;2462;51.456;7.248;2022-10-31T07:35:12;14.60;99.90
2935;DHT22;2462;51.456;7.248;2022-10-31T07:37:38;14.60;99.90
2935;DHT22;2462;51.456;7.248;2022-10-31T07:40:05;14.60;99.90
2935;DHT22;2462;51.456;7.248;2022-10-31T07:42:38;14.60;99.90
2935;DHT22;2462;51.456;7.248;2022-10-31T07:45:08;14.60;99.90
2935;DHT22;2462;51.456;7.248;2022-10-31T07:47:41;14.60;99.90
2935;DHT22;2462;51.456;7.248;2022-10-31T07:50:09;14.60;99.90
2935;DHT22;2462;51.456;7.248;2022-10-31T07:52:35;14.60;99.90
2935;DHT22;2462;51.456;7.248;2022-10-31T07:55:01;14.60;99.90
2935;DHT22;2462;51.456;7.248;2022-10-31T07:57:26;14.60;99.90
2935;DHT22;2462;51.456;7.248;2022-10-31T07:59:52;14.60;99.90
2935;DHT22;2462;51.456;7.248;2022-10-31T08:02:18;14.60;99.90
2935;DHT22;2462;51.456;7.248;2022-10-31T08:04:43;14.60;99.90
2935;DHT22;2462;51.456;7.248;2022-10-31T08:07:09;14.60;99.90
2935;DHT22;2462;51.456;7.248;2022-10-31T08:09:34;14.60;99.90
2935;DHT22;2462;51.456;7.248;2022-10-31T08:12:00;14.60;99.90
2935;DHT22;2462;51.456;7.248;2022-10-31T08:14:26;14.60;99.90
2935;DHT22;2462;51.456;7.248;2022-10-31T08:16:53;14.60;99.90
2935;DHT22;2462;51.456;7.248;2022-10-31T08:19:18;14.60;99.90
2935;DHT22;2462;51.456;7.248;2022-10-31T08:21:44;14.60;99.90
2935;DHT22;2462;51.456;7.248;2022-10-31T08:24:09;14.60;99.90
2935;DHT22;2462;51.456;7.248;2022-10-31T08:26:35;14.70;99.90
2935;DHT22;2462;51.456;7.248;2022-10-31T08:29:01;14.70;99.90
2935;DHT22;2462;51.456;7.248;2022-10-31T08:31:27;14.70;99.90
2935;DHT22;2462;51.456;7.248;2022-10-31T08:33:53;14.70;99.90
2935;DHT22;2462;51.456;7.248;2022-10-31T08:36:22;14.70;99.90
2935;DHT22;2462;51.456;7.248;2022-10-31T08:38:48;14.70;99.90
2935;DHT22;2462;51.456;7.248;2022-10-31T08:41:14;14.80;99.90
2935;DHT22;2462;51.456;7.248;2022-10-31T08:43:39;14.80;99.90
2935;DHT22;2462;51.456;7.248;2022-10-31T08:46:06;14.80;99.90
2935;DHT22;2462;51.456;7.248;2022-10-31T08:48:31;14.80;99.90
2935;DHT22;2462;51.456;7.248;2022-10-31T08:50:58;14.80;99.90
2935;DHT22;2462;51.456;7.248;2022-10-31T08:53:25;14.80;99.90
2935;DHT22;2462;51.456;7.248;2022-10-31T08:55:54;14.90;99.90
2935;DHT22;2462;51.456;7.248;2022-10-31T08:58:20;14.90;99.90
2935;DHT22;2462;51.456;7.248;2022-10-31T09:00:48;14.90;99.90
2935;DHT22;2462;51.456;7.248;2022-10-31T09:03:15;14.90;99.90
2935;DHT22;2462;51.456;7.248;2022-10-31T09:05:41;14.90;99.90
2935;DHT22;2462;51.456;7.248;2022-10-31T09:08:07;15.00;99.90
2935;DHT22;2462;51.456;7.248;2022-10-31T09:10:35;15.00;99.90
2935;DHT22;2462;51.456;7.248;2022-10-31T09:13:04;15.00;99.90
2935;DHT22;2462;51.456;7.248;2022-10-31T09:15:33;15.00;99.90
2935;DHT22;2462;51.456;7.248;2022-10-31T09:17:59;15.00;99.90
2935;DHT22;2462;51.456;7.248;2022-10-31T09:20:25;15.10;99.90
2935;DHT22;2462;51.456;7.248;2022-10-31T09:23:26;15.10;99.90
2935;DHT22;2462;51.456;7.248;2022-10-31T09:25:52;15.10;99.90
2935;DHT22;2462;51.456;7.248;2022-10-31T09:28:22;15.10;99.90
2935;DHT22;2462;51.456;7.248;2022-10-31T09:30:51;15.20;99.90
2935;DHT22;2462;51.456;7.248;2022-10-31T09:33:17;15.20;99.90
2935;DHT22;2462;51.456;7.248;2022-10-31T09:35:43;15.20;99.90
2935;DHT22;2462;51.456;7.248;2022-10-31T09:38:10;15.20;99.90
2935;DHT22;2462;51.456;7.248;2022-10-31T09:40:40;15.20;99.90
2935;DHT22;2462;51.456;7.248;2022-10-31T09:51:07;15.30;99.90
2935;DHT22;2462;51.456;7.248;2022-10-31T09:53:50;15.30;99.90
2935;DHT22;2462;51.456;7.248;2022-10-31T09:56:21;15.30;99.90
2935;DHT22;2462;51.456;7.248;2022-10-31T09:58:53;15.30;99.90
2935;DHT22;2462;51.456;7.248;2022-10-31T10:03:56;15.40;99.90
2935;DHT22;2462;51.456;7.248;2022-10-31T10:06:27;15.40;99.90
2935;DHT22;2462;51.456;7.248;2022-10-31T10:08:55;15.50;99.90
2935;DHT22;2462;51.456;7.248;2022-10-31T10:11:43;15.40;99.90
2935;DHT22;2462;51.456;7.248;2022-10-31T10:17:44;15.50;99.90
2935;DHT22;2462;51.456;7.248;2022-10-31T10:20:17;15.50;99.90
2935;DHT22;2462;51.456;7.248;2022-10-31T10:25:38;15.60;99.90
2935;DHT22;2462;51.456;7.248;2022-10-31T10:28:25;15.60;99.90
2935;DHT22;2462;51.456;7.248;2022-10-31T10:31:03;15.70;99.90
2935;DHT22;2462;51.456;7.248;2022-10-31T10:36:20;15.70;99.90
2935;DHT22;2462;51.456;7.248;2022-10-31T10:38:52;15.70;99.90
2935;DHT22;2462;51.456;7.248;2022-10-31T10:41:23;15.70;99.90
2935;DHT22;2462;51.456;7.248;2022-10-31T10:43:50;15.80;99.90
2935;DHT22;2462;51.456;7.248;2022-10-31T10:46:41;15.80;99.90
2935;DHT22;2462;51.456;7.248;2022-10-31T11:00:43;16.00;99.90
2935;DHT22;2462;51.456;7.248;2022-10-31T11:03:08;16.00;99.90
2935;DHT22;2462;51.456;7.248;2022-10-31T11:08:10;16.00;99.90
2935;DHT22;2462;51.456;7.248;2022-10-31T11:10:36;16.00;99.90
2935;DHT22;2462;51.456;7.248;2022-10-31T11:13:17;16.00;99.90
2935;DHT22;2462;51.456;7.248;2022-10-31T11:16:02;16.00;99.90
2935;DHT22;2462;51.456;7.248;2022-10-31T11:18:31;16.00;99.90
2935;DHT22;2462;51.456;7.248;2022-10-31T11:20:59;16.10;99.90
2935;DHT22;2462;51.456;7.248;2022-10-31T11:23:27;16.10;99.90
2935;DHT22;2462;51.456;7.248;2022-10-31T11:26:04;16.10;99.90
2935;DHT22;2462;51.456;7.248;2022-10-31T11:28:32;16.10;99.90
2935;DHT22;2462;51.456;7.248;2022-10-31T11:31:05;16.10;99.90
2935;DHT22;2462;51.456;7.248;2022-10-31T11:33:36;16.20;99.90
2935;DHT22;2462;51.456;7.248;2022-10-31T11:36:18;16.20;99.90
2935;DHT22;2462;51.456;7.248;2022-10-31T11:38:46;16.20;99.90
2935;DHT22;2462;51.456;7.248;2022-10-31T11:41:27;16.20;99.90
2935;DHT22;2462;51.456;7.248;2022-10-31T11:43:56;16.20;99.90
2935;DHT22;2462;51.456;7.248;2022-10-31T11:46:45;16.30;99.90
2935;DHT22;2462;51.456;7.248;2022-10-31T11:51:43;16.40;99.90
2935;DHT22;2462;51.456;7.248;2022-10-31T11:54:27;16.40;99.90
2935;DHT22;2462;51.456;7.248;2022-10-31T11:56:54;16.40;99.90
2935;DHT22;2462;51.456;7.248;2022-10-31T11:59:25;16.40;99.90
2935;DHT22;2462;51.456;7.248;2022-10-31T12:01:53;16.40;99.90
2935;DHT22;2462;51.456;7.248;2022-10-31T12:04:43;16.40;99.90
2935;DHT22;2462;51.456;7.248;2022-10-31T12:07:10;16.50;99.90
2935;DHT22;2462;51.456;7.248;2022-10-31T12:09:36;16.50;99.90
2935;DHT22;2462;51.456;7.248;2022-10-31T12:15:16;16.50;99.90
2935;DHT22;2462;51.456;7.248;2022-10-31T12:26:58;16.60;99.90
2935;DHT22;2462;51.456;7.248;2022-10-31T12:32:32;16.70;99.90
2935;DHT22;2462;51.456;7.248;2022-10-31T12:35:32;16.70;99.90
2935;DHT22;2462;51.456;7.248;2022-10-31T12:38:06;16.70;99.90
2935;DHT22;2462;51.456;7.248;2022-10-31T12:40:36;16.80;99.90
2935;DHT22;2462;51.456;7.248;2022-10-31T12:43:28;16.80;99.90
2935;DHT22;2462;51.456;7.248;2022-10-31T12:45:57;18.10;99.90
2935;DHT22;2462;51.456;7.248;2022-10-31T12:56:56;16.90;99.90
2935;DHT22;2462;51.456;7.248;2022-10-31T12:59:35;16.90;99.90
2935;DHT22;2462;51.456;7.248;2022-10-31T13:02:04;16.90;99.90
2935;DHT22;2462;51.456;7.248;2022-10-31T13:07:38;17.00;99.90
2935;DHT22;2462;51.456;7.248;2022-10-31T13:10:19;17.00;99.90
2935;DHT22;2462;51.456;7.248;2022-10-31T13:12:48;17.00;99.90
2935;DHT22;2462;51.456;7.248;2022-10-31T13:15:22;17.00;99.90
2935;DHT22;2462;51.456;7.248;2022-10-31T13:17:53;17.10;99.90
2935;DHT22;2462;51.456;7.248;2022-10-31T13:20:37;17.10;99.90
2935;DHT22;2462;51.456;7.248;2022-10-31T13:23:26;17.10;99.90
2935;DHT22;2462;51.456;7.248;2022-10-31T13:25:55;17.10;99.90
2935;DHT22;2462;51.456;7.248;2022-10-31T13:28:40;17.10;99.90
2935;DHT22;2462;51.456;7.248;2022-10-31T13:31:08;17.10;99.90
2935;DHT22;2462;51.456;7.248;2022-10-31T13:33:59;17.10;99.90
2935;DHT22;2462;51.456;7.248;2022-10-31T13:36:41;17.10;99.90
2935;DHT22;2462;51.456;7.248;2022-10-31T13:42:17;17.20;99.90
2935;DHT22;2462;51.456;7.248;2022-10-31T13:44:44;18.30;99.90
2935;DHT22;2462;51.456;7.248;2022-10-31T13:47:26;17.20;99.90
2935;DHT22;2462;51.456;7.248;2022-10-31T13:49:51;17.20;99.90
2935;DHT22;2462;51.456;7.248;2022-10-31T13:52:27;17.20;99.90
2935;DHT22;2462;51.456;7.248;2022-10-31T13:54:54;17.20;99.90
2935;DHT22;2462;51.456;7.248;2022-10-31T13:57:34;17.20;99.90
2935;DHT22;2462;51.456;7.248;2022-10-31T14:02:36;17.30;99.90
2935;DHT22;2462;51.456;7.248;2022-10-31T14:05:25;17.30;99.90
2935;DHT22;2462;51.456;7.248;2022-10-31T14:07:53;17.30;99.90
2935;DHT22;2462;51.456;7.248;2022-10-31T14:10:35;17.30;99.90
2935;DHT22;2462;51.456;7.248;2022-10-31T14:15:58;17.40;99.90
2935;DHT22;2462;51.456;7.248;2022-10-31T14:18:36;17.40;99.90
2935;DHT22;2462;51.456;7.248;2022-10-31T14:23:49;17.40;99.90
2935;DHT22;2462;51.456;7.248;2022-10-31T14:28:54;17.50;99.90
2935;DHT22;2462;51.456;7.248;2022-10-31T14:31:36;17.50;99.90
2935;DHT22;2462;51.456;7.248;2022-10-31T14:44:57;17.50;99.90
2935;DHT22;2462;51.456;7.248;2022-10-31T14:52:57;17.50;99.90
2935;DHT22;2462;51.456;7.248;2022-10-31T14:55:26;17.50;99.90
2935;DHT22;2462;51.456;7.248;2022-10-31T14:57:59;17.50;99.90
2935;DHT22;2462;51.456;7.248;2022-10-31T15:00:26;17.50;99.90
2935;DHT22;2462;51.456;7.248;2022-10-31T15:03:22;17.50;99.90
2935;DHT22;2462;51.456;7.248;2022-10-31T15:05:55;17.50;99.90
2935;DHT22;2462;51.456;7.248;2022-10-31T15:08:44;17.50;99.90
2935;DHT22;2462;51.456;7.248;2022-10-31T15:11:23;17.40;99.90
2935;DHT22;2462;51.456;7.248;2022-10-31T15:13:58;17.50;99.90
2935;DHT22;2462;51.456;7.248;2022-10-31T15:16:32;17.10;99.90
2935;DHT22;2462;51.456;7.248;2022-10-31T15:19:03;17.40;99.90
2935;DHT22;2462;51.456;7.248;2022-10-31T15:21:29;17.80;99.90
2935;DHT22;2462;51.456;7.248;2022-10-31T15:23:59;17.40;99.90
2935;DHT22;2462;51.456;7.248;2022-10-31T15:26:43;17.40;99.90
2935;DHT22;2462;51.456;7.248;2022-10-31T15:29:20;17.40;99.90
2935;DHT22;2462;51.456;7.248;2022-10-31T15:31:59;17.40;99.90
2935;DHT22;2462;51.456;7.248;2022-10-31T15:34:39;17.40;99.90
2935;DHT22;2462;51.456;7.248;2022-10-31T15:37:13;17.40;99.90
2935;DHT22;2462;51.456;7.248;2022-10-31T15:39:39;17.40;99.90
2935;DHT22;2462;51.456;7.248;2022-10-31T15:42:13;17.40;99.90
2935;DHT22;2462;51.456;7.248;2022-10-31T15:44:41;17.40;99.90
2935;DHT22;2462;51.456;7.248;2022-10-31T15:47:16;19.00;99.90
2935;DHT22;2462;51.456;7.248;2022-10-31T15:49:48;17.40;99.90
2935;DHT22;2462;51.456;7.248;2022-10-31T15:52:28;17.40;99.90
2935;DHT22;2462;51.456;7.248;2022-10-31T15:57:40;17.40;99.90
2935;DHT22;2462;51.456;7.248;2022-10-31T16:00:39;17.40;99.90
2935;DHT22;2462;51.456;7.248;2022-10-31T16:05:50;17.40;99.90
2935;DHT22;2462;51.456;7.248;2022-10-31T16:08:34;17.00;99.90
2935;DHT22;2462;51.456;7.248;2022-10-31T16:13:40;17.30;99.90
2935;DHT22;2462;51.456;7.248;2022-10-31T16:16:14;17.80;99.90
2935;DHT22;2462;51.456;7.248;2022-10-31T16:18:41;17.30;99.90
2935;DHT22;2462;51.456;7.248;2022-10-31T16:21:07;17.30;99.90
2935;DHT22;2462;51.456;7.248;2022-10-31T16:23:33;17.20;99.90
2935;DHT22;2462;51.456;7.248;2022-10-31T16:25:59;17.30;99.90
2935;DHT22;2462;51.456;7.248;2022-10-31T16:28:26;17.20;99.90
2935;DHT22;2462;51.456;7.248;2022-10-31T16:30:54;17.10;99.90
2935;DHT22;2462;51.456;7.248;2022-10-31T16:33:29;17.20;99.90
2935;DHT22;2462;51.456;7.248;2022-10-31T16:35:57;17.20;99.90
2935;DHT22;2462;51.456;7.248;2022-10-31T16:38:23;17.20;99.90
2935;DHT22;2462;51.456;7.248;2022-10-31T16:40:50;17.20;99.90
2935;DHT22;2462;51.456;7.248;2022-10-31T16:43:18;17.20;99.90
2935;DHT22;2462;51.456;7.248;2022-10-31T16:45:46;17.20;99.90
2935;DHT22;2462;51.456;7.248;2022-10-31T16:48:16;17.10;99.90
2935;DHT22;2462;51.456;7.248;2022-10-31T16:50:43;17.10;99.90
2935;DHT22;2462;51.456;7.248;2022-10-31T16:53:10;17.10;99.90
2935;DHT22;2462;51.456;7.248;2022-10-31T16:55:57;17.10;99.90
2935;DHT22;2462;51.456;7.248;2022-10-31T16:58:28;17.10;99.90
2935;DHT22;2462;51.456;7.248;2022-10-31T17:00:55;17.10;99.90
2935;DHT22;2462;51.456;7.248;2022-10-31T17:03:21;17.10;99.90
2935;DHT22;2462;51.456;7.248;2022-10-31T17:05:47;17.00;99.90
2935;DHT22;2462;51.456;7.248;2022-10-31T17:08:12;18.50;99.90
2935;DHT22;2462;51.456;7.248;2022-10-31T17:10:39;17.00;99.90
2935;DHT22;2462;51.456;7.248;2022-10-31T17:13:07;16.90;99.90
2935;DHT22;2462;51.456;7.248;2022-10-31T17:15:40;17.00;99.90
2935;DHT22;2462;51.456;7.248;2022-10-31T17:18:06;17.00;99.90
2935;DHT22;2462;51.456;7.248;2022-10-31T17:20:32;17.00;99.90
2935;DHT22;2462;51.456;7.248;2022-10-31T17:22:58;17.00;99.90
2935;DHT22;2462;51.456;7.248;2022-10-31T17:25:29;16.90;99.90
2935;DHT22;2462;51.456;7.248;2022-10-31T17:27:56;16.90;99.90
2935;DHT22;2462;51.456;7.248;2022-10-31T17:30:22;16.90;99.90
2935;DHT22;2462;51.456;7.248;2022-10-31T17:32:49;16.80;99.90
2935;DHT22;2462;51.456;7.248;2022-10-31T17:35:16;16.80;99.90
2935;DHT22;2462;51.456;7.248;2022-10-31T17:37:43;16.80;99.90
2935;DHT22;2462;51.456;7.248;2022-10-31T17:40:14;16.80;99.90
2935;DHT22;2462;51.456;7.248;2022-10-31T17:42:39;16.80;99.90
2935;DHT22;2462;51.456;7.248;2022-10-31T17:45:06;16.80;99.90
2935;DHT22;2462;51.456;7.248;2022-10-31T17:47:32;16.70;99.90
2935;DHT22;2462;51.456;7.248;2022-10-31T17:49:58;16.70;99.90
2935;DHT22;2462;51.456;7.248;2022-10-31T17:52:24;16.70;99.90
2935;DHT22;2462;51.456;7.248;2022-10-31T17:54:49;16.70;99.90
2935;DHT22;2462;51.456;7.248;2022-10-31T17:57:15;16.60;99.90
2935;DHT22;2462;51.456;7.248;2022-10-31T17:59:41;16.50;99.90
2935;DHT22;2462;51.456;7.248;2022-10-31T18:02:11;16.60;99.90
2935;DHT22;2462;51.456;7.248;2022-10-31T18:04:37;16.60;99.90
2935;DHT22;2462;51.456;7.248;2022-10-31T18:07:06;16.60;99.90
2935;DHT22;2462;51.456;7.248;2022-10-31T18:09:32;16.60;99.90
2935;DHT22;2462;51.456;7.248;2022-10-31T18:11:58;16.60;99.90
2935;DHT22;2462;51.456;7.248;2022-10-31T18:14:24;16.60;99.90
2935;DHT22;2462;51.456;7.248;2022-10-31T18:16:49;16.60;99.90
2935;DHT22;2462;51.456;7.248;2022-10-31T18:19:16;16.60;99.90
2935;DHT22;2462;51.456;7.248;2022-10-31T18:21:43;16.60;99.90
2935;DHT22;2462;51.456;7.248;2022-10-31T18:24:09;16.60;99.90
2935;DHT22;2462;51.456;7.248;2022-10-31T18:26:35;16.60;99.90
2935;DHT22;2462;51.456;7.248;2022-10-31T18:29:01;16.60;99.90
2935;DHT22;2462;51.456;7.248;2022-10-31T18:31:27;16.50;99.90
2935;DHT22;2462;51.456;7.248;2022-10-31T18:33:54;16.60;99.90
2935;DHT22;2462;51.456;7.248;2022-10-31T18:36:20;16.50;99.90
2935;DHT22;2462;51.456;7.248;2022-10-31T18:38:46;16.50;99.90
2935;DHT22;2462;51.456;7.248;2022-10-31T18:41:12;16.50;99.90